Brookhaven, New York
Current Conditions -  °F | °C
As of 3:56 PM on Saturday 20 Dec 2014 (Local Time) from KHWV Reporting Station
Overcast Overcast  
Wind Chill: 27°   Ceiling: 2000
Heat Index: 32°   Visibility: 10mi
Dew Point: 24°   Wind: 5mph
Humidity: 73%   Direction: 320°NW
Pressure: 30.27"   Gusts: NA
Location:  40.78°N, 72.91°W
Report Text: KHWV 202056Z AUTO 32004KT 10SM OVC020 00/M04 A3027 RMK AO2 SLP250 T00001044 55000 TSNO
Loading
Personal Weather Stations






























Interactive Weather Map New forecast layout! Learn more

10-Day Weather Forecast

Advertisements
Track Severe Weather on mobile